createdAt,value
2023-10-23T00:01:56.842Z,100576.81
2023-10-23T00:04:24.944Z,100588.22
2023-10-23T00:06:52.740Z,100578.09
2023-10-23T00:09:21.664Z,100577.69
2023-10-23T00:11:49.430Z,100541.94
2023-10-23T00:14:17.089Z,100574.06
2023-10-23T00:16:44.739Z,100578.66
2023-10-23T00:19:12.579Z,100580.31
2023-10-23T00:21:40.156Z,100553.47
2023-10-23T00:24:07.970Z,100585.75
2023-10-23T00:26:35.797Z,100587.00
2023-10-23T00:29:03.464Z,100592.09
2023-10-23T00:31:31.039Z,100546.81
2023-10-23T00:33:59.088Z,100586.44
2023-10-23T00:36:26.770Z,100583.09
2023-10-23T00:38:54.412Z,100567.88
2023-10-23T00:41:22.201Z,100547.91
2023-10-23T00:43:49.830Z,100572.03
2023-10-23T00:46:21.333Z,100536.84
2023-10-23T00:48:49.880Z,100576.75
2023-10-23T00:51:18.673Z,100578.69
2023-10-23T00:53:47.331Z,100577.72
2023-10-23T00:56:15.327Z,100582.00
2023-10-23T00:58:43.924Z,100583.03
2023-10-23T01:01:16.325Z,100588.19
2023-10-23T01:03:44.955Z,100560.06
2023-10-23T01:06:15.590Z,100604.84
2023-10-23T01:08:43.985Z,100605.12
2023-10-23T01:11:11.792Z,100602.63
2023-10-23T01:13:39.771Z,100597.19
2023-10-23T01:16:08.400Z,100596.75
2023-10-23T01:18:36.451Z,100590.53
2023-10-23T01:21:04.078Z,100589.84
2023-10-23T01:23:35.909Z,100591.25
2023-10-23T01:26:04.801Z,100547.62
2023-10-23T01:28:32.485Z,100596.25
2023-10-23T01:31:00.523Z,100601.09
2023-10-23T01:33:29.770Z,100607.47
2023-10-23T01:35:57.521Z,100599.31
2023-10-23T01:38:26.763Z,100605.69
2023-10-23T01:40:54.563Z,100601.66
2023-10-23T01:43:22.197Z,100600.28
2023-10-23T01:45:49.993Z,100597.50
2023-10-23T01:48:17.960Z,100604.97
2023-10-23T01:50:45.532Z,100592.38
2023-10-23T01:53:13.129Z,100595.84
2023-10-23T01:55:41.383Z,100597.09
2023-10-23T01:58:08.911Z,100602.87
2023-10-23T02:00:36.798Z,100603.06
2023-10-23T02:03:05.666Z,100599.75
2023-10-23T02:05:33.366Z,100596.28
2023-10-23T02:08:00.993Z,100590.31
2023-10-23T02:10:30.188Z,100596.56
2023-10-23T02:12:57.733Z,100598.91
2023-10-23T02:15:25.307Z,100596.97
2023-10-23T02:17:53.243Z,100596.81
2023-10-23T02:20:23.289Z,100542.81
2023-10-23T02:22:50.821Z,100592.38
2023-10-23T02:25:18.537Z,100596.81
2023-10-23T02:27:46.479Z,100548.19
2023-10-23T02:30:14.403Z,100597.25
2023-10-23T02:32:41.905Z,100598.09
2023-10-23T02:35:10.001Z,100598.66
2023-10-23T02:37:37.543Z,100595.84
2023-10-23T02:40:07.045Z,100595.31
2023-10-23T02:42:35.073Z,100610.94
2023-10-23T02:45:02.661Z,100603.75
2023-10-23T02:47:30.216Z,100606.94
2023-10-23T02:49:58.044Z,100607.94
2023-10-23T02:52:26.775Z,100566.22
2023-10-23T02:54:54.405Z,100612.19
2023-10-23T02:57:22.299Z,100621.09
2023-10-23T02:59:49.874Z,100620.53
2023-10-23T03:02:17.944Z,100587.09
2023-10-23T03:04:45.863Z,100622.19
2023-10-23T03:07:14.574Z,100620.66
2023-10-23T03:09:42.721Z,100621.19
2023-10-23T03:12:10.676Z,100612.47
2023-10-23T03:14:38.244Z,100619.25
2023-10-23T03:17:05.779Z,100620.63
2023-10-23T03:19:33.625Z,100620.78
2023-10-23T03:22:01.322Z,100618.56
2023-10-23T03:24:29.365Z,100621.06
2023-10-23T03:26:58.916Z,100615.94
2023-10-23T03:29:26.449Z,100610.78
2023-10-23T03:31:53.984Z,100602.91
2023-10-23T03:34:26.325Z,100600.94
2023-10-23T03:36:54.082Z,100594.59
2023-10-23T03:39:21.920Z,100598.84
2023-10-23T03:41:49.586Z,100600.13
2023-10-23T03:44:17.160Z,100607.75
2023-10-23T03:46:45.848Z,100568.22
2023-10-23T03:49:13.446Z,100604.94
2023-10-23T03:51:40.965Z,100559.31
2023-10-23T03:54:08.798Z,100595.09
2023-10-23T03:56:36.403Z,100597.19
2023-10-23T03:59:04.559Z,100597.88
2023-10-23T04:01:32.397Z,100587.47
2023-10-23T04:04:00.396Z,100600.91
2023-10-23T04:06:28.124Z,100546.16
2023-10-23T04:08:55.592Z,100593.72
2023-10-23T04:11:23.775Z,100593.03
2023-10-23T04:13:51.373Z,100540.56
2023-10-23T04:16:19.063Z,100564.66
2023-10-23T04:18:47.469Z,100598.66
2023-10-23T04:21:15.125Z,100596.63
2023-10-23T04:23:42.710Z,100600.91
2023-10-23T04:26:10.648Z,100603.28
2023-10-23T04:28:38.267Z,100601.19
2023-10-23T04:31:06.129Z,100563.50
2023-10-23T04:33:34.177Z,100602.59
2023-10-23T04:36:02.022Z,100598.03
2023-10-23T04:38:29.985Z,100545.34
2023-10-23T04:40:57.835Z,100605.53
2023-10-23T04:43:25.311Z,100606.09
2023-10-23T04:45:56.602Z,100604.16
2023-10-23T04:48:24.665Z,100603.03
2023-10-23T04:50:52.379Z,100606.50
2023-10-23T04:53:20.725Z,100607.47
2023-10-23T04:55:48.755Z,100563.94
2023-10-23T04:58:16.356Z,100601.09
2023-10-23T05:00:45.583Z,100604.72
2023-10-23T05:03:13.679Z,100608.56
2023-10-23T05:05:48.395Z,100615.50
2023-10-23T05:08:16.447Z,100618.41
2023-10-23T05:10:43.966Z,100613.69
2023-10-23T05:13:11.599Z,100581.34
2023-10-23T05:15:39.490Z,100622.22
2023-10-23T05:18:07.113Z,100618.09
2023-10-23T05:20:35.514Z,100624.91
2023-10-23T05:23:04.337Z,100630.06
2023-10-23T05:25:31.910Z,100633.69
2023-10-23T05:27:59.681Z,100644.00
2023-10-23T05:30:28.059Z,100648.94
2023-10-23T05:32:55.842Z,100646.87
2023-10-23T05:35:23.526Z,100660.44
2023-10-23T05:37:51.417Z,100661.75
2023-10-23T05:40:18.979Z,100668.47
2023-10-23T05:42:46.602Z,100672.19
2023-10-23T05:45:14.614Z,100679.41
2023-10-23T05:47:42.418Z,100684.41
2023-10-23T05:50:10.181Z,100645.38
2023-10-23T05:52:37.934Z,100681.97
2023-10-23T05:55:06.130Z,100682.91
2023-10-23T05:57:33.832Z,100673.84
2023-10-23T06:00:02.108Z,100683.34
2023-10-23T06:02:31.370Z,100645.66
2023-10-23T06:04:59.508Z,100696.44
2023-10-23T06:07:27.260Z,100692.31
2023-10-23T06:09:54.875Z,100695.84
2023-10-23T06:12:22.769Z,100696.88
2023-10-23T06:14:51.083Z,100700.12
2023-10-23T06:17:18.732Z,100704.22
2023-10-23T06:19:46.578Z,100707.59
2023-10-23T06:22:14.177Z,100705.44
2023-10-23T06:24:41.707Z,100716.72
2023-10-23T06:27:09.598Z,100668.63
2023-10-23T06:29:37.572Z,100699.06
2023-10-23T06:32:05.880Z,100712.09
2023-10-23T06:34:33.682Z,100713.41
2023-10-23T06:37:01.298Z,100714.38
2023-10-23T06:39:28.878Z,100699.81
2023-10-23T06:41:56.758Z,100707.84
2023-10-23T06:44:24.761Z,100708.13
2023-10-23T06:46:52.539Z,100715.31
2023-10-23T06:49:20.470Z,100707.41
2023-10-23T06:51:48.016Z,100716.25
2023-10-23T06:54:15.606Z,100725.50
2023-10-23T06:56:43.623Z,100725.31
2023-10-23T06:59:11.310Z,100724.94
2023-10-23T07:01:45.046Z,100726.69
2023-10-23T07:04:13.471Z,100725.37
2023-10-23T07:06:41.093Z,100728.25
2023-10-23T07:09:08.714Z,100728.81
2023-10-23T07:11:36.717Z,100733.19
2023-10-23T07:14:04.411Z,100732.37
2023-10-23T07:16:32.056Z,100726.38
2023-10-23T07:19:00.168Z,100730.00
2023-10-23T07:21:28.685Z,100690.12
2023-10-23T07:23:56.337Z,100725.94
2023-10-23T07:26:24.219Z,100734.09
2023-10-23T07:28:51.885Z,100736.06
2023-10-23T07:31:19.628Z,100730.28
2023-10-23T07:33:47.582Z,100728.81
2023-10-23T07:36:16.148Z,100728.37
2023-10-23T07:38:44.991Z,100717.47
2023-10-23T07:41:14.202Z,100700.06
2023-10-23T07:43:43.069Z,100729.16
2023-10-23T07:46:17.551Z,100720.09
2023-10-23T07:48:47.113Z,100719.97
2023-10-23T07:51:15.705Z,100723.16
2023-10-23T07:53:43.476Z,100721.19
2023-10-23T07:56:14.074Z,100719.50
2023-10-23T07:58:42.063Z,100719.50
2023-10-23T08:01:13.229Z,100721.13
2023-10-23T08:03:42.056Z,100721.81
2023-10-23T08:06:11.778Z,100723.59
2023-10-23T08:08:41.589Z,100712.78
2023-10-23T08:11:11.186Z,100725.53
2023-10-23T08:13:39.087Z,100719.94
2023-10-23T08:16:07.398Z,100728.25
2023-10-23T08:18:39.007Z,100730.19
2023-10-23T08:21:16.073Z,100699.97
2023-10-23T08:23:47.862Z,100725.34
2023-10-23T08:26:15.891Z,100725.19
2023-10-23T08:31:29.338Z,100719.31
2023-10-23T08:34:02.169Z,100710.12
2023-10-23T08:36:29.880Z,100717.88
2023-10-23T08:38:57.465Z,100711.94
2023-10-23T08:41:26.968Z,100713.81
2023-10-23T08:43:56.432Z,100705.53
2023-10-23T08:46:32.796Z,100709.31
2023-10-23T08:49:02.655Z,100675.88
2023-10-23T08:51:31.245Z,100712.19
2023-10-23T08:54:10.876Z,100706.19
2023-10-23T08:56:42.516Z,100711.19
2023-10-23T08:59:11.652Z,100716.03
2023-10-23T09:01:39.849Z,100713.22
2023-10-23T09:04:11.462Z,100705.28
2023-10-23T09:06:40.126Z,100720.03
2023-10-23T09:09:08.096Z,100724.25
2023-10-23T09:11:47.076Z,100714.56
2023-10-23T09:14:29.394Z,100720.97
2023-10-23T09:16:58.223Z,100704.41
2023-10-23T09:19:29.247Z,100717.38
2023-10-23T09:21:57.834Z,100715.81
2023-10-23T09:24:26.532Z,100715.03
2023-10-23T09:26:54.265Z,100716.75
2023-10-23T09:29:30.731Z,100706.12
2023-10-23T09:32:00.359Z,100674.44
2023-10-23T09:34:30.368Z,100697.81
2023-10-23T09:36:58.631Z,100705.91
2023-10-23T09:39:26.314Z,100705.13
2023-10-23T09:41:54.302Z,100710.31
2023-10-23T09:44:25.586Z,100710.12
2023-10-23T09:46:55.078Z,100707.47
2023-10-23T09:49:23.446Z,100704.28
2023-10-23T09:51:54.497Z,100711.13
2023-10-23T09:54:22.492Z,100709.06
2023-10-23T09:56:52.063Z,100717.12
2023-10-23T09:59:25.646Z,100675.53
2023-10-23T10:02:00.682Z,100703.25
2023-10-23T10:04:49.802Z,100693.78
2023-10-23T10:07:28.872Z,100702.47
2023-10-23T10:09:58.055Z,100695.88
2023-10-23T10:12:28.165Z,100667.47
2023-10-23T10:14:58.499Z,100694.09
2023-10-23T10:17:27.312Z,100657.22
2023-10-23T10:19:57.006Z,100687.53
2023-10-23T10:22:31.775Z,100681.41
2023-10-23T10:24:59.845Z,100680.59
2023-10-23T10:27:28.548Z,100645.53
2023-10-23T10:29:56.038Z,100688.03
2023-10-23T10:32:26.735Z,100684.53
2023-10-23T10:34:57.805Z,100666.84
2023-10-23T10:37:29.437Z,100673.22
2023-10-23T10:39:57.479Z,100665.16
2023-10-23T10:42:30.669Z,100670.94
2023-10-23T10:45:00.932Z,100667.66
2023-10-23T10:47:37.468Z,100664.16
2023-10-23T10:50:06.426Z,100641.91
2023-10-23T10:52:35.445Z,100666.00
2023-10-23T10:55:14.106Z,100633.47
2023-10-23T10:57:44.706Z,100664.34
2023-10-23T11:00:13.708Z,100665.19
2023-10-23T11:02:41.972Z,100664.16
2023-10-23T11:05:15.586Z,100661.91
2023-10-23T11:07:47.771Z,100665.81
2023-10-23T11:10:15.420Z,100665.59
2023-10-23T11:12:43.452Z,100658.81
2023-10-23T11:15:11.207Z,100659.00
2023-10-23T11:17:38.766Z,100621.50
2023-10-23T11:20:08.825Z,100651.59
2023-10-23T11:22:48.842Z,100642.94
2023-10-23T11:25:16.922Z,100649.31
2023-10-23T11:27:44.650Z,100640.84
2023-10-23T11:30:12.394Z,100635.09
2023-10-23T11:32:41.557Z,100634.47
2023-10-23T11:35:09.396Z,100630.31
2023-10-23T11:37:43.507Z,100626.75
2023-10-23T11:40:12.419Z,100619.50
2023-10-23T11:42:51.255Z,100620.94
2023-10-23T11:45:19.293Z,100588.44
2023-10-23T11:47:47.499Z,100614.75
2023-10-23T11:50:15.214Z,100595.44
2023-10-23T11:52:49.644Z,100575.00
2023-10-23T11:55:18.644Z,100576.84
2023-10-23T11:57:48.647Z,100609.09
2023-10-23T12:00:18.341Z,100578.44
2023-10-23T12:02:48.311Z,100601.91
2023-10-23T12:05:17.966Z,100599.63
2023-10-23T12:07:51.152Z,100570.16
2023-10-23T12:10:18.765Z,100593.19
2023-10-23T12:12:47.676Z,100596.28
2023-10-23T12:15:16.771Z,100600.88
2023-10-23T12:17:44.419Z,100591.94
2023-10-23T12:20:13.576Z,100564.00
2023-10-23T12:22:46.010Z,100595.88
2023-10-23T12:25:15.642Z,100585.31
2023-10-23T12:27:43.725Z,100587.41
2023-10-23T12:30:16.777Z,100593.06
2023-10-23T12:33:17.500Z,100597.38
2023-10-23T12:35:40.174Z,100597.69
2023-10-23T12:38:08.174Z,100591.91
2023-10-23T12:40:37.219Z,100593.78
2023-10-23T12:43:05.579Z,100586.53
2023-10-23T12:45:33.716Z,100589.00
2023-10-23T12:48:01.453Z,100578.72
2023-10-23T12:50:30.290Z,100586.75
2023-10-23T12:52:58.429Z,100580.97
2023-10-23T12:55:26.043Z,100583.38
2023-10-23T12:57:53.660Z,100584.28
2023-10-23T13:00:21.509Z,100584.66
2023-10-23T13:02:49.294Z,100555.50
2023-10-23T13:05:16.964Z,100554.75
2023-10-23T13:07:44.860Z,100580.09
2023-10-23T13:10:12.620Z,100576.37
2023-10-23T13:12:40.258Z,100566.47
2023-10-23T13:15:08.515Z,100574.09
2023-10-23T13:17:36.130Z,100567.53
2023-10-23T13:21:28.018Z,100569.37
2023-10-23T13:22:55.526Z,100550.25
2023-10-23T13:25:23.249Z,100558.28
2023-10-23T13:27:50.884Z,100560.56
2023-10-23T13:30:18.747Z,100566.94
2023-10-23T13:32:47.146Z,100533.81
2023-10-23T13:35:16.573Z,100564.66
2023-10-23T13:37:45.211Z,100560.34
2023-10-23T13:40:12.809Z,100559.13
2023-10-23T13:42:40.454Z,100560.75
2023-10-23T13:45:08.980Z,100561.38
2023-10-23T13:47:36.510Z,100533.97
2023-10-23T13:50:05.376Z,100561.59
2023-10-23T13:52:34.417Z,100562.63
2023-10-23T13:55:02.205Z,100536.66
2023-10-23T13:57:29.932Z,100570.22
2023-10-23T13:59:57.797Z,100572.25
2023-10-23T14:02:25.628Z,100569.81
2023-10-23T14:04:53.669Z,100567.56
2023-10-23T14:07:21.384Z,100569.22
2023-10-23T14:09:50.487Z,100555.81
2023-10-23T14:12:20.659Z,100553.97
2023-10-23T14:14:48.197Z,100556.63
2023-10-23T14:17:15.797Z,100560.56
2023-10-23T14:19:48.352Z,100554.41
2023-10-23T14:22:18.048Z,100553.56
2023-10-23T14:24:49.067Z,100540.56
2023-10-23T14:27:17.199Z,100544.69
2023-10-23T14:29:44.761Z,100552.69
2023-10-23T14:32:12.733Z,100544.47
2023-10-23T14:34:40.332Z,100550.22
2023-10-23T14:37:08.050Z,100554.53
2023-10-23T14:39:35.821Z,100520.97
2023-10-23T14:42:03.428Z,100546.50
2023-10-23T14:44:32.497Z,100540.94
2023-10-23T14:47:00.650Z,100552.66
2023-10-23T14:49:29.077Z,100551.63
2023-10-23T14:51:56.845Z,100518.84
2023-10-23T14:54:25.246Z,100543.78
2023-10-23T14:56:53.356Z,100546.81
2023-10-23T14:59:22.965Z,100514.00
2023-10-23T15:01:51.425Z,100548.38
2023-10-23T15:04:19.190Z,100544.22
2023-10-23T15:06:46.852Z,100536.75
2023-10-23T15:09:14.705Z,100529.31
2023-10-23T15:11:42.230Z,100523.69
2023-10-23T15:14:10.222Z,100524.25
2023-10-23T15:16:38.947Z,100521.31
2023-10-23T15:19:06.624Z,100517.50
2023-10-23T15:21:34.280Z,100521.53
2023-10-23T15:24:02.161Z,100517.34
2023-10-23T15:26:29.793Z,100520.16
2023-10-23T15:28:57.439Z,100519.66
2023-10-23T15:31:25.345Z,100517.50
2023-10-23T15:33:53.564Z,100513.31
2023-10-23T15:36:21.410Z,100509.31
2023-10-23T15:38:49.619Z,100505.34
2023-10-23T15:41:17.402Z,100505.44
2023-10-23T15:43:56.671Z,100522.34
2023-10-23T15:46:24.611Z,100522.84
2023-10-23T15:48:52.280Z,100483.97
2023-10-23T15:51:19.832Z,100520.56
2023-10-23T15:53:47.665Z,100516.41
2023-10-23T15:56:15.172Z,100513.62
2023-10-23T15:58:42.881Z,100529.53
2023-10-23T16:01:11.086Z,100522.94
2023-10-23T16:03:39.012Z,100523.31
2023-10-23T16:06:09.451Z,100486.97
2023-10-23T16:08:37.678Z,100481.34
2023-10-23T16:11:06.203Z,100476.56
2023-10-23T16:13:38.633Z,100514.75
2023-10-23T16:16:14.684Z,100514.13
2023-10-23T16:18:45.624Z,100521.47
2023-10-23T16:21:15.436Z,100528.00
2023-10-23T16:23:43.882Z,100532.84
2023-10-23T16:26:12.031Z,100536.22
2023-10-23T16:28:40.198Z,100532.44
2023-10-23T16:31:13.766Z,100536.66
2023-10-23T16:33:41.991Z,100534.53
2023-10-23T16:36:10.039Z,100536.75
2023-10-23T16:38:37.583Z,100546.09
2023-10-23T16:41:05.501Z,100537.81
2023-10-23T16:43:33.143Z,100544.12
2023-10-23T16:46:00.742Z,100547.16
2023-10-23T16:48:28.592Z,100546.53
2023-10-23T16:50:56.119Z,100548.53
2023-10-23T16:53:23.662Z,100546.25
2023-10-23T16:55:53.080Z,100543.94
2023-10-23T16:58:24.700Z,100538.63
2023-10-23T17:00:54.090Z,100541.44
2023-10-23T17:03:23.432Z,100527.22
2023-10-23T17:05:51.175Z,100493.34
2023-10-23T17:08:18.967Z,100521.09
2023-10-23T17:10:46.500Z,100512.00
2023-10-23T17:13:14.023Z,100499.06
2023-10-23T17:15:43.518Z,100510.16
2023-10-23T17:18:11.456Z,100514.66
2023-10-23T17:20:41.562Z,100519.84
2023-10-23T17:23:09.515Z,100519.56
2023-10-23T17:25:41.570Z,100512.13
2023-10-23T17:28:09.609Z,100514.69
2023-10-23T17:30:38.265Z,100517.03
2023-10-23T17:33:09.202Z,100506.28
2023-10-23T17:35:39.265Z,100499.38
2023-10-23T17:38:07.015Z,100475.13
2023-10-23T17:40:38.091Z,100504.63
2023-10-23T17:43:06.033Z,100499.34
2023-10-23T17:45:34.960Z,100509.16
2023-10-23T17:48:04.038Z,100493.38
2023-10-23T17:50:33.812Z,100495.75
2023-10-23T17:53:02.367Z,100472.03
2023-10-23T17:55:31.765Z,100495.00
2023-10-23T17:58:00.666Z,100505.00
2023-10-23T18:00:28.741Z,100498.72
2023-10-23T18:02:57.071Z,100497.38
2023-10-23T18:05:25.461Z,100492.41
2023-10-23T18:07:54.598Z,100497.09
2023-10-23T18:10:23.261Z,100501.25
2023-10-23T18:12:52.619Z,100495.16
2023-10-23T18:15:20.963Z,100494.34
2023-10-23T18:17:49.143Z,100485.41
2023-10-23T18:20:16.928Z,100490.72
2023-10-23T18:22:44.597Z,100479.91
2023-10-23T18:25:12.717Z,100486.06
2023-10-23T18:27:40.530Z,100481.25
2023-10-23T18:30:08.676Z,100476.78
2023-10-23T18:32:36.699Z,100486.06
2023-10-23T18:35:07.628Z,100480.59
2023-10-23T18:37:36.710Z,100483.94
2023-10-23T18:40:05.871Z,100489.88
2023-10-23T18:42:35.570Z,100487.22
2023-10-23T18:45:06.459Z,100491.37
2023-10-23T18:47:34.781Z,100503.31
2023-10-23T18:50:06.324Z,100501.78
2023-10-23T18:52:34.537Z,100505.91
2023-10-23T18:55:02.398Z,100498.63
2023-10-23T18:57:30.367Z,100466.88
2023-10-23T18:59:59.263Z,100505.56
2023-10-23T19:02:27.528Z,100456.91
2023-10-23T19:04:55.426Z,100501.25
2023-10-23T19:07:23.669Z,100499.59
2023-10-23T19:09:58.194Z,100505.91
2023-10-23T19:12:26.518Z,100496.62
2023-10-23T19:14:54.174Z,100518.16
2023-10-23T19:17:36.940Z,100482.75
2023-10-23T19:20:09.195Z,100472.19
2023-10-23T19:22:38.644Z,100515.69
2023-10-23T19:25:07.276Z,100461.94
2023-10-23T19:27:35.519Z,100515.53
2023-10-23T19:30:04.829Z,100493.38
2023-10-23T19:32:32.721Z,100508.94
2023-10-23T19:35:01.076Z,100503.78
2023-10-23T19:37:29.099Z,100457.28
2023-10-23T19:39:56.962Z,100498.34
2023-10-23T19:42:29.367Z,100493.88
2023-10-23T19:44:57.429Z,100459.94
2023-10-23T19:47:25.926Z,100499.62
2023-10-23T19:49:53.706Z,100491.31
2023-10-23T19:52:21.958Z,100491.50
2023-10-23T19:54:50.884Z,100475.09
2023-10-23T19:57:18.928Z,100443.50
2023-10-23T19:59:46.573Z,100480.06
2023-10-23T20:02:14.560Z,100441.03
2023-10-23T20:04:42.674Z,100478.53
2023-10-23T20:07:10.492Z,100480.03
2023-10-23T20:09:38.290Z,100474.72
2023-10-23T20:12:06.506Z,100471.91
2023-10-23T20:14:34.283Z,100473.38
2023-10-23T20:17:01.933Z,100477.87
2023-10-23T20:19:29.905Z,100440.31
2023-10-23T20:21:59.308Z,100473.03
2023-10-23T20:24:27.097Z,100435.31
2023-10-23T20:26:54.928Z,100462.09
2023-10-23T20:29:22.965Z,100439.97
2023-10-23T20:31:50.909Z,100464.41
2023-10-23T20:34:18.877Z,100472.56
2023-10-23T20:36:46.640Z,100465.59
2023-10-23T20:39:14.572Z,100471.72
2023-10-23T20:41:42.382Z,100468.22
2023-10-23T20:44:09.846Z,100467.41
2023-10-23T20:46:37.601Z,100479.03
2023-10-23T20:49:05.658Z,100472.06
2023-10-23T20:51:33.211Z,100466.47
2023-10-23T20:54:00.722Z,100468.63
2023-10-23T20:56:28.783Z,100432.59
2023-10-23T20:58:56.794Z,100470.78
2023-10-23T21:01:24.401Z,100461.19
2023-10-23T21:03:52.406Z,100463.16
2023-10-23T21:06:20.597Z,100462.38
2023-10-23T21:08:48.154Z,100463.50
2023-10-23T21:11:16.584Z,100465.38
2023-10-23T21:13:44.666Z,100461.03
2023-10-23T21:16:12.387Z,100464.22
2023-10-23T21:18:40.255Z,100450.63
2023-10-23T21:21:07.821Z,100450.50
2023-10-23T21:23:35.368Z,100462.41
2023-10-23T21:26:07.894Z,100458.81
2023-10-23T21:28:35.630Z,100450.50
2023-10-23T21:31:03.830Z,100458.50
2023-10-23T21:33:31.751Z,100406.03
2023-10-23T21:35:59.542Z,100445.59
2023-10-23T21:38:28.020Z,100439.16
2023-10-23T21:40:55.506Z,100452.09
2023-10-23T21:43:23.286Z,100447.13
2023-10-23T21:46:01.895Z,100442.16
2023-10-23T21:48:38.875Z,100434.53
2023-10-23T21:51:07.438Z,100432.06
2023-10-23T21:53:36.780Z,100425.94
2023-10-23T21:56:04.771Z,100383.25
2023-10-23T21:59:02.726Z,100423.94
2023-10-23T22:01:22.226Z,100410.88
2023-10-23T22:03:50.582Z,100420.81
2023-10-23T22:06:19.301Z,100376.66
2023-10-23T22:08:47.059Z,100413.19
2023-10-23T22:11:15.307Z,100345.22
2023-10-23T22:13:43.004Z,100407.75
2023-10-23T22:16:10.608Z,100409.38
2023-10-23T22:18:38.447Z,100415.84
2023-10-23T22:21:06.218Z,100412.69
2023-10-23T22:23:33.735Z,100408.41
2023-10-23T22:26:01.571Z,100404.28
2023-10-23T22:28:29.844Z,100409.59
2023-10-23T22:30:57.478Z,100402.97
2023-10-23T22:33:25.454Z,100403.13
2023-10-23T22:35:53.566Z,100403.47
2023-10-23T22:38:21.110Z,100394.38
2023-10-23T22:40:49.912Z,100392.53
2023-10-23T22:43:17.497Z,100361.63
2023-10-23T22:45:55.774Z,100399.31
2023-10-23T22:48:30.060Z,100389.87
2023-10-23T22:50:58.045Z,100359.44
2023-10-23T22:53:26.009Z,100393.88
2023-10-23T22:55:55.892Z,100392.22
2023-10-23T22:58:30.177Z,100391.22
2023-10-23T23:00:59.414Z,100387.56
2023-10-23T23:03:27.560Z,100380.78
2023-10-23T23:06:02.422Z,100383.28
2023-10-23T23:08:31.015Z,100376.66
2023-10-23T23:10:58.873Z,100376.84
2023-10-23T23:13:26.640Z,100372.53
2023-10-23T23:15:58.357Z,100375.34
2023-10-23T23:18:26.730Z,100371.19
2023-10-23T23:20:58.116Z,100365.91
2023-10-23T23:23:25.644Z,100327.16
2023-10-23T23:25:53.153Z,100364.59
2023-10-23T23:28:20.945Z,100362.78
2023-10-23T23:30:48.532Z,100361.94
2023-10-23T23:33:16.112Z,100364.06
2023-10-23T23:35:44.009Z,100362.25
2023-10-23T23:38:11.677Z,100295.09
2023-10-23T23:40:40.029Z,100360.75
2023-10-23T23:43:08.075Z,100359.28
2023-10-23T23:45:35.726Z,100321.38
2023-10-23T23:48:04.063Z,100354.81
2023-10-23T23:50:31.978Z,100311.63
2023-10-23T23:53:00.106Z,100348.38
2023-10-23T23:55:28.481Z,100342.25
2023-10-23T23:57:56.341Z,100333.81
